Time;durP1;ratioP1;P1;durP2;ratioP2;P2;SDS_P1;SDS_P2;PMS_P1;PMS_P2;Temp;Humidity;BMP_temperature;BMP_pressure;BME280_temperature;BME280_humidity;BME280_pressure;Samples;Min_cycle;Max_cycle;Signal;HPM_P1;HPM_P2
2021/10/14 00:00:55;;;;;;;4.93;2.33;;;;;;;;;;5071574;28;20043;-52
2021/10/14 00:03:21;;;;;;;4.85;2.35;;;;;;;;;;5071904;28;20472;-53
2021/10/14 00:05:47;;;;;;;4.82;2.40;;;;;;;;;;5071832;28;20107;-50
2021/10/14 00:08:14;;;;;;;3.47;2.00;;;;;;;;;;5067496;28;20031;-52
2021/10/14 00:10:40;;;;;;;3.13;1.73;;;;;;;;;;5071260;28;20469;-50
2021/10/14 00:13:06;;;;;;;3.92;2.10;;;;;;;;;;5071825;28;20108;-51
2021/10/14 00:15:32;;;;;;;2.97;1.92;;;;;;;;;;5072689;28;20024;-51
2021/10/14 00:17:58;;;;;;;5.03;2.97;;;;;;;;;;5075039;28;20028;-51
2021/10/14 00:20:24;;;;;;;8.77;2.75;;;;;;;;;;5073947;28;20388;-50
2021/10/14 00:22:51;;;;;;;3.35;2.08;;;;;;;;;;5073868;28;20035;-51
2021/10/14 00:25:19;;;;;;;4.05;2.10;;;;;;;;;;5075360;28;20029;-54
2021/10/14 00:27:45;;;;;;;2.78;1.88;;;;;;;;;;5075130;28;20024;-55
2021/10/14 00:30:11;;;;;;;5.03;2.53;;;;;;;;;;5075268;28;20031;-56
2021/10/14 00:32:37;;;;;;;3.08;2.10;;;;;;;;;;5075499;28;20115;-52
2021/10/14 00:35:04;;;;;;;2.60;1.98;;;;;;;;;;5075475;28;20077;-55
2021/10/14 00:37:30;;;;;;;5.63;3.10;;;;;;;;;;5083283;28;20050;-51
2021/10/14 00:39:56;;;;;;;5.30;2.17;;;;;;;;;;5075006;28;20028;-54
2021/10/14 00:42:21;;;;;;;7.00;2.25;;;;;;;;;;5073785;28;20539;-53
2021/10/14 00:44:49;;;;;;;4.43;2.65;;;;;;;;;;5083053;28;20028;-55
2021/10/14 00:47:19;;;;;;;3.78;2.42;;;;;;;;;;5077055;28;20028;-55
2021/10/14 00:49:45;;;;;;;6.72;2.50;;;;;;;;;;5074929;28;20024;-51
2021/10/14 00:52:11;;;;;;;4.65;2.50;;;;;;;;;;5072189;28;20460;-50
2021/10/14 00:54:37;;;;;;;4.95;2.42;;;;;;;;;;5075176;28;20103;-55
2021/10/14 00:57:03;;;;;;;5.50;2.15;;;;;;;;;;5075272;28;20524;-52
2021/10/14 00:59:30;;;;;;;5.65;2.38;;;;;;;;;;5075209;28;20025;-52
2021/10/14 01:01:56;;;;;;;7.22;2.40;;;;;;;;;;5074968;28;20127;-53
2021/10/14 01:04:22;;;;;;;5.20;2.30;;;;;;;;;;5074774;28;20430;-54
2021/10/14 01:06:48;;;;;;;4.40;2.88;;;;;;;;;;5074656;28;20052;-54
2021/10/14 01:09:14;;;;;;;3.50;2.30;;;;;;;;;;5075035;28;20043;-56
2021/10/14 01:11:40;;;;;;;5.03;2.30;;;;;;;;;;5074915;28;20151;-51
2021/10/14 01:14:06;;;;;;;5.97;2.53;;;;;;;;;;5074969;28;20089;-51
2021/10/14 01:16:39;;;;;;;8.15;3.15;;;;;;;;;;5074584;28;20040;-50
2021/10/14 01:19:05;;;;;;;3.73;2.27;;;;;;;;;;5068796;28;20047;-53
2021/10/14 01:21:32;;;;;;;5.78;2.58;;;;;;;;;;5074490;28;20115;-50
2021/10/14 01:23:59;;;;;;;5.88;3.17;;;;;;;;;;5074640;28;20103;-51
2021/10/14 01:26:26;;;;;;;4.47;2.42;;;;;;;;;;5070497;28;20357;-53
2021/10/14 01:28:52;;;;;;;7.15;3.00;;;;;;;;;;5074055;28;20104;-50
2021/10/14 01:31:18;;;;;;;8.40;2.92;;;;;;;;;;5074375;28;20032;-51
2021/10/14 01:33:44;;;;;;;6.13;2.42;;;;;;;;;;5074342;28;20020;-53
2021/10/14 01:36:10;;;;;;;3.50;2.17;;;;;;;;;;5071512;28;20124;-54
2021/10/14 01:38:36;;;;;;;5.88;2.65;;;;;;;;;;5074431;28;20111;-51
2021/10/14 01:41:02;;;;;;;5.13;2.10;;;;;;;;;;5073692;28;20510;-54
2021/10/14 01:43:28;;;;;;;3.60;2.40;;;;;;;;;;5076970;28;20024;-55
2021/10/14 01:45:54;;;;;;;5.53;2.63;;;;;;;;;;5076515;28;20020;-52
2021/10/14 01:48:20;;;;;;;4.75;2.75;;;;;;;;;;5071358;28;20032;-53
2021/10/14 01:50:46;;;;;;;4.45;2.78;;;;;;;;;;5072881;28;20039;-51
2021/10/14 01:53:12;;;;;;;6.90;2.60;;;;;;;;;;5072629;28;20388;-52
2021/10/14 01:55:39;;;;;;;8.88;3.33;;;;;;;;;;5072295;28;20456;-51
2021/10/14 01:58:06;;;;;;;4.68;2.55;;;;;;;;;;5073347;28;20052;-53
2021/10/14 02:00:31;;;;;;;4.32;2.30;;;;;;;;;;5073648;28;20116;-51
2021/10/14 02:02:57;;;;;;;10.38;2.80;;;;;;;;;;5071532;28;20021;-53
2021/10/14 02:05:24;;;;;;;6.03;3.10;;;;;;;;;;5080391;28;20074;-52
2021/10/14 02:07:49;;;;;;;6.07;2.58;;;;;;;;;;5072943;28;20036;-52
2021/10/14 02:10:15;;;;;;;6.30;3.53;;;;;;;;;;5073575;28;20036;-56
2021/10/14 02:12:41;;;;;;;8.93;3.40;;;;;;;;;;5073543;28;20021;-54
2021/10/14 02:15:08;;;;;;;6.40;3.97;;;;;;;;;;5073425;28;20032;-54
2021/10/14 02:17:33;;;;;;;7.43;2.95;;;;;;;;;;5072766;28;20025;-54
2021/10/14 02:19:59;;;;;;;4.18;2.75;;;;;;;;;;5072858;28;20056;-55
2021/10/14 02:22:26;;;;;;;6.47;3.40;;;;;;;;;;5073571;28;20028;-54
2021/10/14 02:24:52;;;;;;;7.88;2.67;;;;;;;;;;5070401;28;20107;-51
2021/10/14 02:27:18;;;;;;;4.85;3.47;;;;;;;;;;5065075;28;20485;-52
2021/10/14 02:29:43;;;;;;;5.15;2.70;;;;;;;;;;5072099;28;20056;-51
2021/10/14 02:32:10;;;;;;;5.00;2.33;;;;;;;;;;5071543;28;20083;-53
2021/10/14 02:34:35;;;;;;;3.47;2.22;;;;;;;;;;5073121;28;20021;-52
2021/10/14 02:37:01;;;;;;;3.47;2.03;;;;;;;;;;5073141;28;20098;-51
2021/10/14 02:39:27;;;;;;;2.70;1.65;;;;;;;;;;5067865;28;20097;-50
2021/10/14 02:41:53;;;;;;;6.55;2.20;;;;;;;;;;5071989;28;20047;-51
2021/10/14 02:44:19;;;;;;;4.43;1.65;;;;;;;;;;5075755;28;20098;-55
2021/10/14 02:46:45;;;;;;;3.17;1.52;;;;;;;;;;5072961;28;20050;-54
2021/10/14 02:49:11;;;;;;;2.22;1.45;;;;;;;;;;5072205;28;20024;-51
2021/10/14 02:51:37;;;;;;;4.47;1.77;;;;;;;;;;5072944;28;20036;-53
2021/10/14 02:54:03;;;;;;;1.67;1.38;;;;;;;;;;5072583;28;20044;-50
2021/10/14 02:56:29;;;;;;;2.38;1.50;;;;;;;;;;5072687;28;20028;-52
2021/10/14 02:58:55;;;;;;;2.22;1.38;;;;;;;;;;5072749;28;20292;-53
2021/10/14 03:01:21;;;;;;;2.08;1.52;;;;;;;;;;5071879;28;20036;-50
2021/10/14 03:03:47;;;;;;;4.78;2.08;;;;;;;;;;5072630;28;20032;-51
2021/10/14 03:06:13;;;;;;;4.38;1.92;;;;;;;;;;5072624;28;20521;-52
2021/10/14 03:08:39;;;;;;;3.00;1.60;;;;;;;;;;5072592;28;20020;-51
2021/10/14 03:11:05;;;;;;;2.00;1.38;;;;;;;;;;5072478;28;20487;-53
2021/10/14 03:13:31;;;;;;;2.97;1.88;;;;;;;;;;5072570;28;20025;-51
2021/10/14 03:15:57;;;;;;;2.72;1.65;;;;;;;;;;5072270;28;20502;-53
2021/10/14 03:18:23;;;;;;;2.55;1.67;;;;;;;;;;5069562;28;20464;-53
2021/10/14 03:20:49;;;;;;;2.90;1.60;;;;;;;;;;5072268;28;20028;-52
2021/10/14 03:23:15;;;;;;;2.35;1.80;;;;;;;;;;5072159;28;20029;-52
2021/10/14 03:25:41;;;;;;;2.45;1.80;;;;;;;;;;5072195;28;20472;-51
2021/10/14 03:28:07;;;;;;;2.65;1.58;;;;;;;;;;5072349;28;20024;-51
2021/10/14 03:30:33;;;;;;;4.13;1.88;;;;;;;;;;5072111;28;20024;-54
2021/10/14 03:32:59;;;;;;;3.50;1.60;;;;;;;;;;5071776;28;20025;-50
2021/10/14 03:35:25;;;;;;;3.58;1.92;;;;;;;;;;5072085;28;20021;-51
2021/10/14 03:37:51;;;;;;;2.53;1.73;;;;;;;;;;5072152;28;20056;-54
2021/10/14 03:40:17;;;;;;;4.50;1.83;;;;;;;;;;5071847;28;20043;-51
2021/10/14 03:42:43;;;;;;;2.75;1.35;;;;;;;;;;5070715;28;20021;-52
2021/10/14 03:45:09;;;;;;;1.95;1.45;;;;;;;;;;5071605;28;20392;-50
2021/10/14 03:47:35;;;;;;;2.08;1.40;;;;;;;;;;5072199;28;20024;-52
2021/10/14 03:50:01;;;;;;;2.47;1.50;;;;;;;;;;5069892;28;20615;-51
2021/10/14 03:52:27;;;;;;;5.53;1.45;;;;;;;;;;5071995;28;20023;-54
2021/10/14 03:54:53;;;;;;;1.70;1.27;;;;;;;;;;5071998;28;20032;-52
2021/10/14 03:57:19;;;;;;;2.20;1.20;;;;;;;;;;5072090;28;20385;-50
2021/10/14 03:59:45;;;;;;;3.75;1.25;;;;;;;;;;5071768;28;20028;-52
2021/10/14 04:02:11;;;;;;;1.67;1.00;;;;;;;;;;5071910;28;20074;-53
2021/10/14 04:04:37;;;;;;;1.90;1.30;;;;;;;;;;5071928;28;20027;-50
2021/10/14 04:07:03;;;;;;;2.28;1.20;;;;;;;;;;5068124;28;20029;-52
2021/10/14 04:09:29;;;;;;;1.33;1.02;;;;;;;;;;5067125;28;20028;-50
2021/10/14 04:11:55;;;;;;;1.50;1.17;;;;;;;;;;5069246;28;20033;-54
2021/10/14 04:14:21;;;;;;;1.95;0.90;;;;;;;;;;5067031;28;20033;-51
2021/10/14 04:16:46;;;;;;;2.00;1.10;;;;;;;;;;5071733;28;20032;-51
2021/10/14 04:19:12;;;;;;;1.88;1.10;;;;;;;;;;5071273;28;20052;-50
2021/10/14 04:21:39;;;;;;;0.98;0.93;;;;;;;;;;5071720;28;20036;-51
2021/10/14 04:24:05;;;;;;;2.22;1.10;;;;;;;;;;5071715;28;20016;-54
2021/10/14 04:26:31;;;;;;;1.23;0.80;;;;;;;;;;5071722;28;20051;-50
2021/10/14 04:28:57;;;;;;;1.35;0.93;;;;;;;;;;5070220;28;20033;-53
2021/10/14 04:31:23;;;;;;;1.08;0.98;;;;;;;;;;5071553;28;20086;-53
2021/10/14 04:33:49;;;;;;;1.10;1.00;;;;;;;;;;5071599;28;20423;-51
2021/10/14 04:36:15;;;;;;;7.25;1.00;;;;;;;;;;5071505;28;20016;-52
2021/10/14 04:38:41;;;;;;;1.63;1.13;;;;;;;;;;5071345;28;20518;-50
2021/10/14 04:41:07;;;;;;;1.10;1.00;;;;;;;;;;5067892;28;20144;-50
2021/10/14 04:43:33;;;;;;;1.40;1.10;;;;;;;;;;5071281;28;20023;-50
2021/10/14 04:45:59;;;;;;;1.27;1.15;;;;;;;;;;5070912;28;20644;-51
2021/10/14 04:48:25;;;;;;;2.28;0.98;;;;;;;;;;5071548;28;20435;-51
2021/10/14 04:50:51;;;;;;;1.05;0.75;;;;;;;;;;5071552;28;20115;-51
2021/10/14 04:53:17;;;;;;;2.42;1.30;;;;;;;;;;5071270;28;20032;-51
2021/10/14 04:55:46;;;;;;;3.22;1.30;;;;;;;;;;5071361;28;20044;-53
2021/10/14 04:58:11;;;;;;;1.48;1.00;;;;;;;;;;5069527;28;20362;-51
2021/10/14 05:00:37;;;;;;;1.63;1.20;;;;;;;;;;5071230;28;20142;-53
2021/10/14 05:03:03;;;;;;;2.63;1.52;;;;;;;;;;5074110;28;20036;-51
2021/10/14 05:05:29;;;;;;;1.40;1.10;;;;;;;;;;5068309;28;20443;-53
2021/10/14 05:07:55;;;;;;;1.20;1.10;;;;;;;;;;5074642;28;20033;-51
2021/10/14 05:10:21;;;;;;;1.42;1.33;;;;;;;;;;5074705;28;20075;-51
2021/10/14 05:12:47;;;;;;;0.98;0.90;;;;;;;;;;5074710;28;20028;-50
2021/10/14 05:15:13;;;;;;;4.32;1.10;;;;;;;;;;5074747;28;20036;-54
2021/10/14 05:17:39;;;;;;;1.42;0.80;;;;;;;;;;5074916;28;20423;-50
2021/10/14 05:20:06;;;;;;;4.55;1.73;;;;;;;;;;5074396;28;20118;-52
2021/10/14 05:22:32;;;;;;;0.93;0.82;;;;;;;;;;5074695;28;20115;-51
2021/10/14 05:24:58;;;;;;;1.38;0.88;;;;;;;;;;5073402;28;20086;-51
2021/10/14 05:27:24;;;;;;;1.10;1.00;;;;;;;;;;5073784;28;20385;-51
2021/10/14 05:29:50;;;;;;;1.20;0.85;;;;;;;;;;5074452;28;20033;-52
2021/10/14 05:32:16;;;;;;;1.98;1.30;;;;;;;;;;5074377;28;20029;-55
2021/10/14 05:34:42;;;;;;;1.15;1.00;;;;;;;;;;5074324;28;20357;-50
2021/10/14 05:37:08;;;;;;;1.10;1.00;;;;;;;;;;5072425;28;20017;-51
2021/10/14 05:39:34;;;;;;;1.30;1.00;;;;;;;;;;5072939;28;20028;-52
2021/10/14 05:42:00;;;;;;;2.50;1.10;;;;;;;;;;5074536;28;20025;-50
2021/10/14 05:44:26;;;;;;;1.70;1.15;;;;;;;;;;5079982;28;20031;-51
2021/10/14 05:46:52;;;;;;;1.80;1.20;;;;;;;;;;5064232;28;20061;-54
2021/10/14 05:49:18;;;;;;;1.58;1.20;;;;;;;;;;5070910;28;20022;-55
2021/10/14 05:51:44;;;;;;;2.72;1.50;;;;;;;;;;5072036;28;20039;-53
2021/10/14 05:54:10;;;;;;;1.85;1.42;;;;;;;;;;5071801;28;20021;-52
2021/10/14 05:56:36;;;;;;;9.10;8.35;;;;;;;;;;5070290;28;20037;-50
2021/10/14 05:59:02;;;;;;;2.50;1.60;;;;;;;;;;5072070;28;20111;-52
2021/10/14 06:01:28;;;;;;;1.40;1.27;;;;;;;;;;5071960;28;20029;-51
2021/10/14 06:03:55;;;;;;;2.25;1.55;;;;;;;;;;5065009;28;20476;-56
2021/10/14 06:06:21;;;;;;;2.42;1.90;;;;;;;;;;5077233;28;20123;-50
2021/10/14 06:08:47;;;;;;;2.30;1.60;;;;;;;;;;5068657;28;20024;-50
2021/10/14 06:11:14;;;;;;;1.60;1.30;;;;;;;;;;5071012;28;20151;-53
2021/10/14 06:13:40;;;;;;;2.28;1.45;;;;;;;;;;5067171;28;20024;-53
2021/10/14 06:16:06;;;;;;;2.22;1.63;;;;;;;;;;5068369;28;20459;-55
2021/10/14 06:18:37;;;;;;;6.32;4.90;;;;;;;;;;5071200;28;20111;-52
2021/10/14 06:21:03;;;;;;;2.45;1.90;;;;;;;;;;5073153;28;20029;-50
2021/10/14 06:23:29;;;;;;;2.45;1.83;;;;;;;;;;5072062;28;20100;-51
2021/10/14 06:25:55;;;;;;;2.17;1.67;;;;;;;;;;5071349;28;20029;-54
2021/10/14 06:28:22;;;;;;;3.75;2.40;;;;;;;;;;5075652;28;20037;-54
2021/10/14 06:30:48;;;;;;;2.30;1.83;;;;;;;;;;5073302;28;20029;-50
2021/10/14 06:33:14;;;;;;;3.47;2.00;;;;;;;;;;5073349;28;20127;-54
2021/10/14 06:35:40;;;;;;;4.28;2.35;;;;;;;;;;5069047;28;20033;-51
2021/10/14 06:38:06;;;;;;;14.40;6.57;;;;;;;;;;5069412;28;20028;-52
2021/10/14 06:40:32;;;;;;;3.88;2.72;;;;;;;;;;5071314;28;20027;-54
2021/10/14 06:42:59;;;;;;;4.70;2.53;;;;;;;;;;5077170;28;20029;-51
2021/10/14 06:45:25;;;;;;;3.75;2.45;;;;;;;;;;5068602;28;20219;-50
2021/10/14 06:47:51;;;;;;;4.80;2.75;;;;;;;;;;5068277;28;20051;-54
2021/10/14 06:50:18;;;;;;;3.97;2.38;;;;;;;;;;5063470;28;20024;-55
2021/10/14 06:52:44;;;;;;;3.20;2.30;;;;;;;;;;5071440;28;20454;-51
2021/10/14 06:55:10;;;;;;;7.85;3.88;;;;;;;;;;5073543;28;20021;-50
2021/10/14 06:57:37;;;;;;;4.20;2.85;;;;;;;;;;5081175;28;20467;-52
2021/10/14 07:00:07;;;;;;;6.68;3.40;;;;;;;;;;5069918;28;20214;-55
2021/10/14 07:02:33;;;;;;;11.50;5.63;;;;;;;;;;5069665;28;20388;-52
2021/10/14 07:04:59;;;;;;;5.88;3.67;;;;;;;;;;5067064;28;20353;-55
2021/10/14 07:07:25;;;;;;;7.68;4.32;;;;;;;;;;5068241;28;20050;-54
2021/10/14 07:09:51;;;;;;;6.75;3.00;;;;;;;;;;5069435;28;20060;-52
2021/10/14 07:12:17;;;;;;;5.00;3.20;;;;;;;;;;5071094;28;20048;-51
2021/10/14 07:14:44;;;;;;;10.40;5.50;;;;;;;;;;5072091;28;20519;-51
2021/10/14 07:17:10;;;;;;;12.32;6.28;;;;;;;;;;5072334;28;20063;-55
2021/10/14 07:19:36;;;;;;;4.88;3.30;;;;;;;;;;5071013;28;20080;-53
2021/10/14 07:22:05;;;;;;;5.78;3.75;;;;;;;;;;5070012;28;20064;-53
2021/10/14 07:24:31;;;;;;;6.88;4.03;;;;;;;;;;5072240;28;20025;-56
2021/10/14 07:26:58;;;;;;;8.38;4.47;;;;;;;;;;5071605;28;20090;-55
2021/10/14 07:29:24;;;;;;;6.07;3.65;;;;;;;;;;5062599;28;20038;-51
2021/10/14 07:31:50;;;;;;;9.27;4.07;;;;;;;;;;5072109;28;20070;-52
2021/10/14 07:34:16;;;;;;;5.93;3.97;;;;;;;;;;5071674;28;20119;-52
2021/10/14 07:36:42;;;;;;;7.60;4.43;;;;;;;;;;5072107;28;20112;-52
2021/10/14 07:39:08;;;;;;;7.00;4.60;;;;;;;;;;5063752;28;20032;-52
2021/10/14 07:41:34;;;;;;;10.05;5.90;;;;;;;;;;5071824;28;20029;-54
2021/10/14 07:44:00;;;;;;;7.05;4.47;;;;;;;;;;5078576;28;20123;-52
2021/10/14 07:46:27;;;;;;;6.38;4.47;;;;;;;;;;5067457;28;20060;-52
2021/10/14 07:48:53;;;;;;;8.32;4.78;;;;;;;;;;5062835;28;20330;-52
2021/10/14 07:51:19;;;;;;;7.00;3.92;;;;;;;;;;5072072;28;20125;-53
2021/10/14 07:53:45;;;;;;;7.07;4.07;;;;;;;;;;5071578;28;20020;-52
2021/10/14 07:56:11;;;;;;;6.22;4.07;;;;;;;;;;5069711;28;20028;-51
2021/10/14 07:58:37;;;;;;;7.63;4.28;;;;;;;;;;5070168;28;20028;-51
2021/10/14 08:01:03;;;;;;;6.95;4.47;;;;;;;;;;5067470;28;20055;-50
2021/10/14 08:03:29;;;;;;;7.93;4.25;;;;;;;;;;5055844;28;20012;-50
2021/10/14 08:05:55;;;;;;;8.40;5.18;;;;;;;;;;5059039;28;20070;-51
2021/10/14 08:08:21;;;;;;;10.45;5.30;;;;;;;;;;5064036;28;20078;-51
2021/10/14 08:10:48;;;;;;;8.95;4.65;;;;;;;;;;5068591;28;20025;-50
2021/10/14 08:13:16;;;;;;;10.82;5.10;;;;;;;;;;5069623;28;20123;-50
2021/10/14 08:15:42;;;;;;;8.85;5.07;;;;;;;;;;5064615;28;20752;-54
2021/10/14 08:18:08;;;;;;;8.25;4.63;;;;;;;;;;5063161;28;20032;-52
2021/10/14 08:20:35;;;;;;;9.82;5.32;;;;;;;;;;5064601;28;20118;-53
2021/10/14 08:23:02;;;;;;;7.50;4.50;;;;;;;;;;5064670;28;20032;-55
2021/10/14 08:25:28;;;;;;;6.65;4.65;;;;;;;;;;5063122;28;20070;-52
2021/10/14 08:27:54;;;;;;;9.93;6.15;;;;;;;;;;5065069;28;20116;-52
2021/10/14 08:30:20;;;;;;;10.75;5.28;;;;;;;;;;5068804;28;20036;-50
2021/10/14 08:33:00;;;;;;;10.07;5.30;;;;;;;;;;5060475;28;20369;-56
2021/10/14 08:35:26;;;;;;;10.23;5.55;;;;;;;;;;5042940;28;20138;-54
2021/10/14 08:37:52;;;;;;;12.48;5.18;;;;;;;;;;5040825;28;20072;-53
2021/10/14 08:40:20;;;;;;;9.85;4.25;;;;;;;;;;5030514;28;20627;-56
2021/10/14 08:42:46;;;;;;;8.43;4.68;;;;;;;;;;5024860;28;20068;-52
2021/10/14 08:45:13;;;;;;;8.07;4.50;;;;;;;;;;5023781;28;20044;-54
2021/10/14 08:47:40;;;;;;;7.68;4.28;;;;;;;;;;5024189;28;20044;-52
2021/10/14 08:50:07;;;;;;;8.63;4.75;;;;;;;;;;5027372;28;20037;-53
2021/10/14 08:52:33;;;;;;;8.45;4.65;;;;;;;;;;5028912;28;20116;-53
2021/10/14 08:54:59;;;;;;;9.07;5.45;;;;;;;;;;5026946;28;20097;-56
2021/10/14 08:57:28;;;;;;;7.72;4.97;;;;;;;;;;5024362;28;20033;-53
2021/10/14 08:59:54;;;;;;;9.68;5.18;;;;;;;;;;5022039;28;20493;-57
2021/10/14 09:02:24;;;;;;;9.60;5.07;;;;;;;;;;5023497;28;20033;-53
2021/10/14 09:04:52;;;;;;;12.27;5.88;;;;;;;;;;5026763;28;20088;-54
2021/10/14 09:07:19;;;;;;;8.73;5.15;;;;;;;;;;5028934;28;20481;-52
2021/10/14 09:09:47;;;;;;;8.80;4.80;;;;;;;;;;5028114;28;20026;-52
2021/10/14 09:12:14;;;;;;;10.20;4.97;;;;;;;;;;5025041;28;20112;-53
2021/10/14 09:15:01;;;;;;;6.45;3.55;;;;;;;;;;5027873;28;20175;-56
2021/10/14 09:17:42;;;;;;;7.03;3.92;;;;;;;;;;5026875;28;20034;-52
2021/10/14 09:20:26;;;;;;;5.97;3.85;;;;;;;;;;5028260;28;20033;-53
2021/10/14 09:23:06;;;;;;;7.10;4.57;;;;;;;;;;5027864;28;20408;-55
2021/10/14 09:25:34;;;;;;;8.90;4.15;;;;;;;;;;5028569;28;20501;-56
2021/10/14 09:28:07;;;;;;;7.32;4.60;;;;;;;;;;5028478;28;20044;-57
2021/10/14 09:30:42;;;;;;;11.20;4.53;;;;;;;;;;5028020;28;20104;-54
2021/10/14 09:33:08;;;;;;;9.77;5.00;;;;;;;;;;5027301;28;20026;-52
2021/10/14 09:35:34;;;;;;;9.00;4.93;;;;;;;;;;5027191;28;20026;-53
2021/10/14 09:38:00;;;;;;;9.05;4.50;;;;;;;;;;5027632;28;20038;-54
2021/10/14 09:40:27;;;;;;;7.03;4.30;;;;;;;;;;5027966;28;20560;-53
2021/10/14 09:42:58;;;;;;;9.98;4.10;;;;;;;;;;5022024;28;20032;-53
2021/10/14 09:45:30;;;;;;;7.72;3.90;;;;;;;;;;5012627;28;20053;-56
2021/10/14 09:48:05;;;;;;;7.07;3.30;;;;;;;;;;5014365;28;20112;-53
2021/10/14 09:50:35;;;;;;;5.70;3.17;;;;;;;;;;5014148;28;20536;-52
2021/10/14 09:53:02;;;;;;;6.07;3.42;;;;;;;;;;5013232;28;20490;-53
2021/10/14 09:55:28;;;;;;;7.07;3.92;;;;;;;;;;5023705;28;20532;-54
2021/10/14 09:57:55;;;;;;;5.57;2.85;;;;;;;;;;5012583;28;20096;-55
2021/10/14 10:00:23;;;;;;;4.85;2.80;;;;;;;;;;5013587;28;20022;-53
2021/10/14 10:02:50;;;;;;;4.15;2.40;;;;;;;;;;5013619;28;20030;-52
2021/10/14 10:05:16;;;;;;;3.30;2.15;;;;;;;;;;5014391;28;20033;-53
2021/10/14 10:07:43;;;;;;;3.78;2.17;;;;;;;;;;5013337;28;20084;-52
2021/10/14 10:10:11;;;;;;;4.03;2.33;;;;;;;;;;5013716;28;20109;-54
2021/10/14 10:12:38;;;;;;;3.33;2.10;;;;;;;;;;5013515;28;20030;-54
2021/10/14 10:15:04;;;;;;;3.60;1.85;;;;;;;;;;5012955;28;20022;-54
2021/10/14 10:17:37;;;;;;;2.60;1.45;;;;;;;;;;5014175;28;20113;-56
2021/10/14 10:20:04;;;;;;;2.45;1.30;;;;;;;;;;5013689;28;20041;-54
2021/10/14 10:22:36;;;;;;;2.20;1.38;;;;;;;;;;5012986;28;20097;-54
2021/10/14 10:25:21;;;;;;;1.73;1.20;;;;;;;;;;5013525;28;20459;-52
2021/10/14 10:27:47;;;;;;;1.48;1.05;;;;;;;;;;5014179;28;20033;-52
2021/10/14 10:30:29;;;;;;;1.48;0.93;;;;;;;;;;5014000;28;20536;-52
2021/10/14 10:32:55;;;;;;;1.30;0.70;;;;;;;;;;5013765;28;20073;-52
2021/10/14 10:35:39;;;;;;;2.85;0.90;;;;;;;;;;5013830;28;20105;-52
2021/10/14 10:38:23;;;;;;;1.15;0.82;;;;;;;;;;5012381;28;20367;-54
2021/10/14 10:40:50;;;;;;;1.25;0.80;;;;;;;;;;5010420;28;20042;-52
2021/10/14 10:43:22;;;;;;;1.08;0.55;;;;;;;;;;5009634;28;20026;-52
2021/10/14 10:45:52;;;;;;;0.70;0.52;;;;;;;;;;5009178;28;20088;-53
2021/10/14 10:48:35;;;;;;;0.88;0.60;;;;;;;;;;5011927;28;20029;-54
2021/10/14 10:51:02;;;;;;;1.73;0.55;;;;;;;;;;5013477;28;20042;-55
2021/10/14 10:53:48;;;;;;;1.13;0.70;;;;;;;;;;5013581;28;20029;-53
2021/10/14 10:56:34;;;;;;;2.60;0.88;;;;;;;;;;5012348;28;20371;-53
2021/10/14 10:59:00;;;;;;;1.85;1.00;;;;;;;;;;5012241;28;20038;-52
2021/10/14 11:01:26;;;;;;;1.85;1.30;;;;;;;;;;5013256;28;20474;-52
2021/10/14 11:03:56;;;;;;;2.95;1.50;;;;;;;;;;5012813;28;20034;-54
2021/10/14 11:06:23;;;;;;;3.42;1.60;;;;;;;;;;5012722;28;20454;-53
2021/10/14 11:08:49;;;;;;;3.28;1.45;;;;;;;;;;5012293;28;20061;-54
2021/10/14 11:11:19;;;;;;;1.95;1.35;;;;;;;;;;5012798;28;20451;-52
2021/10/14 11:13:50;;;;;;;3.30;1.75;;;;;;;;;;5011701;28;20026;-54
2021/10/14 11:16:17;;;;;;;4.68;2.03;;;;;;;;;;5011435;28;20018;-54
2021/10/14 11:18:45;;;;;;;2.88;1.83;;;;;;;;;;5012351;28;20076;-53
2021/10/14 11:21:12;;;;;;;2.63;1.92;;;;;;;;;;5012928;28;20034;-53
2021/10/14 11:23:48;;;;;;;5.82;2.50;;;;;;;;;;5012994;28;20033;-53
2021/10/14 11:26:15;;;;;;;5.18;2.85;;;;;;;;;;5012826;28;20048;-52
2021/10/14 11:28:50;;;;;;;4.78;2.90;;;;;;;;;;5012590;28;20034;-55
2021/10/14 11:31:26;;;;;;;5.28;2.67;;;;;;;;;;5012685;28;20549;-55
2021/10/14 11:33:52;;;;;;;4.00;2.53;;;;;;;;;;5009483;28;20026;-53
2021/10/14 11:36:21;;;;;;;6.20;3.17;;;;;;;;;;5010385;28;20482;-54
2021/10/14 11:39:14;;;;;;;5.50;3.22;;;;;;;;;;5008011;28;20101;-53
2021/10/14 11:41:40;;;;;;;6.03;3.08;;;;;;;;;;5007077;28;20451;-55
2021/10/14 11:44:10;;;;;;;9.20;4.03;;;;;;;;;;5010404;28;20034;-53
2021/10/14 11:46:37;;;;;;;7.38;3.67;;;;;;;;;;5011003;28;20433;-54
2021/10/14 11:49:05;;;;;;;8.27;4.05;;;;;;;;;;5012215;28;20029;-53
2021/10/14 11:51:31;;;;;;;7.10;3.97;;;;;;;;;;5012274;28;20040;-57
2021/10/14 11:54:00;;;;;;;8.32;4.25;;;;;;;;;;5011863;28;20097;-53
2021/10/14 11:56:26;;;;;;;9.10;4.60;;;;;;;;;;5012576;28;20033;-52
2021/10/14 11:58:52;;;;;;;9.02;4.47;;;;;;;;;;5011983;28;20029;-54
2021/10/14 12:01:21;;;;;;;10.68;4.32;;;;;;;;;;5010986;28;20445;-53
2021/10/14 12:03:48;;;;;;;8.40;4.40;;;;;;;;;;5012672;28;20025;-52
2021/10/14 12:06:16;;;;;;;8.15;4.55;;;;;;;;;;5012075;28;20030;-55
2021/10/14 12:08:43;;;;;;;8.93;5.00;;;;;;;;;;5008621;28;20033;-54
2021/10/14 12:11:16;;;;;;;6.30;3.95;;;;;;;;;;5012401;28;20076;-52
2021/10/14 12:13:42;;;;;;;9.77;4.40;;;;;;;;;;5011368;28;20079;-52
2021/10/14 12:16:09;;;;;;;8.95;3.83;;;;;;;;;;5010324;28;20026;-53
2021/10/14 12:18:36;;;;;;;7.82;4.30;;;;;;;;;;5010038;28;20038;-52
2021/10/14 12:21:03;;;;;;;9.10;4.47;;;;;;;;;;5010540;28;20037;-53
2021/10/14 12:23:30;;;;;;;9.77;3.85;;;;;;;;;;5011465;28;20053;-57
2021/10/14 12:26:14;;;;;;;8.32;4.47;;;;;;;;;;5010952;28;20080;-56
2021/10/14 12:28:44;;;;;;;8.18;3.95;;;;;;;;;;5008615;28;20026;-53
2021/10/14 12:31:11;;;;;;;5.28;2.63;;;;;;;;;;5010336;28;20490;-56
2021/10/14 12:33:37;;;;;;;5.60;3.38;;;;;;;;;;5011855;28;20542;-52
2021/10/14 12:36:03;;;;;;;5.72;2.47;;;;;;;;;;5010631;28;20041;-52
2021/10/14 12:38:39;;;;;;;4.25;2.58;;;;;;;;;;5012196;28;20026;-55
2021/10/14 12:41:15;;;;;;;4.55;2.88;;;;;;;;;;5011720;28;20034;-52
2021/10/14 12:43:50;;;;;;;7.10;2.75;;;;;;;;;;5005231;28;20371;-53
2021/10/14 12:46:34;;;;;;;4.80;2.55;;;;;;;;;;5012240;28;20029;-57
2021/10/14 12:49:20;;;;;;;4.65;2.72;;;;;;;;;;5011729;28;20498;-55
2021/10/14 12:51:51;;;;;;;4.05;2.50;;;;;;;;;;5010136;28;20432;-51
2021/10/14 12:54:17;;;;;;;4.68;2.63;;;;;;;;;;5011865;28;20037;-54
2021/10/14 12:56:47;;;;;;;5.32;2.90;;;;;;;;;;5009823;28;20049;-52
2021/10/14 12:59:14;;;;;;;6.97;2.40;;;;;;;;;;5011407;28;20034;-53
2021/10/14 13:01:40;;;;;;;4.70;2.72;;;;;;;;;;5011875;28;20033;-52
2021/10/14 13:04:07;;;;;;;5.13;2.78;;;;;;;;;;5011900;28;20022;-51
2021/10/14 13:06:34;;;;;;;4.20;3.00;;;;;;;;;;5011931;28;20518;-51
2021/10/14 13:09:02;;;;;;;6.03;2.38;;;;;;;;;;5011252;28;20462;-52
2021/10/14 13:11:32;;;;;;;4.60;2.13;;;;;;;;;;5011971;28;20505;-53
2021/10/14 13:13:58;;;;;;;5.68;2.47;;;;;;;;;;5008935;28;20097;-52
2021/10/14 13:16:24;;;;;;;5.32;2.33;;;;;;;;;;5010372;28;20030;-52
2021/10/14 13:18:51;;;;;;;3.58;2.20;;;;;;;;;;5013337;28;20547;-54
2021/10/14 13:21:16;;;;;;;3.35;2.35;;;;;;;;;;5015084;28;20104;-52
2021/10/14 13:23:42;;;;;;;6.57;2.30;;;;;;;;;;5015623;28;20105;-52
2021/10/14 13:26:09;;;;;;;3.97;2.35;;;;;;;;;;5012617;28;20045;-53
2021/10/14 13:28:37;;;;;;;4.43;2.28;;;;;;;;;;5010084;28;20044;-51
2021/10/14 13:31:04;;;;;;;6.47;2.40;;;;;;;;;;5014628;28;20108;-52
2021/10/14 13:33:31;;;;;;;6.32;3.00;;;;;;;;;;5014887;28;20481;-53
2021/10/14 13:35:59;;;;;;;6.30;3.00;;;;;;;;;;5014335;28;20017;-53
2021/10/14 13:38:25;;;;;;;5.18;2.75;;;;;;;;;;5014488;28;20033;-53
2021/10/14 13:40:56;;;;;;;3.10;2.20;;;;;;;;;;5013416;28;20478;-54
2021/10/14 13:43:25;;;;;;;8.35;3.55;;;;;;;;;;5013127;28;20064;-52
2021/10/14 13:45:51;;;;;;;6.55;3.20;;;;;;;;;;5014782;28;20458;-51
2021/10/14 13:48:18;;;;;;;3.65;2.75;;;;;;;;;;5013450;28;20033;-54
2021/10/14 13:50:44;;;;;;;6.10;3.83;;;;;;;;;;5012705;28;20026;-52
2021/10/14 13:53:11;;;;;;;7.38;3.47;;;;;;;;;;5011555;28;20389;-51
2021/10/14 13:55:37;;;;;;;13.88;4.47;;;;;;;;;;5006738;28;20112;-51
2021/10/14 13:58:03;;;;;;;7.50;4.22;;;;;;;;;;5012492;28;20500;-51
2021/10/14 14:00:29;;;;;;;10.77;4.38;;;;;;;;;;5013411;28;20030;-52
2021/10/14 14:02:55;;;;;;;11.45;4.88;;;;;;;;;;5013536;28;20034;-56
2021/10/14 14:05:21;;;;;;;7.22;4.50;;;;;;;;;;5013051;28;20470;-52
2021/10/14 14:07:47;;;;;;;9.88;4.38;;;;;;;;;;5011807;28;20484;-54
2021/10/14 14:10:13;;;;;;;10.32;4.82;;;;;;;;;;5012501;28;20026;-51
2021/10/14 14:12:39;;;;;;;7.18;4.50;;;;;;;;;;5008468;28;20056;-52
2021/10/14 14:15:06;;;;;;;7.22;4.05;;;;;;;;;;5003955;28;20101;-52
2021/10/14 14:17:32;;;;;;;7.65;4.40;;;;;;;;;;5004848;28;20053;-54
2021/10/14 14:19:58;;;;;;;8.65;4.82;;;;;;;;;;5012034;28;20025;-52
2021/10/14 14:22:24;;;;;;;11.00;5.07;;;;;;;;;;5011400;28;20412;-54
2021/10/14 14:24:50;;;;;;;8.57;4.43;;;;;;;;;;5010600;28;20068;-53
2021/10/14 14:27:16;;;;;;;8.93;4.97;;;;;;;;;;5010598;28;20458;-54
2021/10/14 14:29:43;;;;;;;9.57;4.97;;;;;;;;;;5009043;28;20042;-52
2021/10/14 14:32:10;;;;;;;7.28;4.50;;;;;;;;;;5008724;28;20057;-56
2021/10/14 14:34:36;;;;;;;9.82;5.25;;;;;;;;;;5013165;28;20517;-53
2021/10/14 14:37:08;;;;;;;6.15;3.90;;;;;;;;;;5008945;28;20056;-55
2021/10/14 14:39:34;;;;;;;9.88;4.55;;;;;;;;;;5002724;28;20068;-52
2021/10/14 14:42:00;;;;;;;5.60;3.67;;;;;;;;;;5003618;28;20030;-55
2021/10/14 14:44:26;;;;;;;6.40;3.92;;;;;;;;;;5012770;28;20041;-54